Terminal Aerodrome Forecast
Issued by NWS Albany, NY

Home | Current Version | Previous Version | Text Only | Print | Product List | Glossary On
Versions: 1 2 3 4 5 6 7 8 9 10 11 12 13 14 15 16 17 18 19 20
382
FTUS41 KALY 091728 AAA
TAFGFL
TAF AMD
KGFL 091728Z 0917/1018 16004KT P6SM VCSH BKN015 OVC035
      TEMPO 0918/0922 P6SM SCT015 OVC035
     FM100000 VRB03KT 2SM -SHSN BR BKN015 OVC025
     FM101300 20004KT 2SM -SHSN BR SCT025 OVC050=

USA.gov is the U.S. government's official web portal to all federal, state and local government web resources and services.